»·PEaware :: N5077J 3L2-49X

N5077J :: 3L2-49X

FLIGHT INFORMATION

Flight Status: Arrived
Operator: Privately registered:
United States
More flights under this callsign
Pilot: Ben H. (9170)
Aircraft: CESSNA 310
(C310)
More flights by this aircraft type
Origin: 3L2 Sky Ranch
United States
Destination: 49X Chemehuevi Valley
United States
More flights between these airports :: More routes between these airports
Route:
File this flight plan on PilotEdge
Remarks:
Altitude:
(Current/Filed)
9,500ft
Speed:
(Current/Filed)
180kts
Departed: 31-Aug-19 07:43 AM
Arrived: 31-Aug-19 08:16 AM
Distance/Time
Traveled:
96nm/0:33
Distance/Time
To Go:
Arrived

Flight Plot

Page will automatically refresh every two minutes.


Map Options




Map Legend


Flown Route
Filed Route
Departure Airport
Arrival Airport
Navaid (VOR, NDB)
Fix

Horizontal Profiles

Position Reports

Time Latitude Longitude Heading Altitude Ground
Speed
31-Aug-19 07:24 35.794978 -115.626448 1 2602ft 0kts
31-Aug-19 07:25 35.794978 -115.626448 1 2602ft 0kts
31-Aug-19 07:26 35.794978 -115.626448 1 2602ft 0kts
31-Aug-19 07:27 35.794978 -115.626448 1 2602ft 0kts
31-Aug-19 07:28 35.794978 -115.626448 1 2602ft 0kts
31-Aug-19 07:29 35.794978 -115.626448 1 2602ft 0kts
31-Aug-19 07:30 35.794978 -115.626448 1 2602ft 0kts
31-Aug-19 07:31 35.794978 -115.626448 1 2602ft 0kts
31-Aug-19 07:32 35.794978 -115.626448 1 2602ft 0kts
31-Aug-19 07:33 35.794978 -115.626448 1 2602ft 0kts
31-Aug-19 07:34 35.794978 -115.626448 1 2602ft 0kts
31-Aug-19 07:35 35.794978 -115.626448 1 2602ft 0kts
31-Aug-19 07:36 35.794978 -115.626448 1 2602ft 0kts
31-Aug-19 07:37 35.794978 -115.626448 1 2602ft 0kts
31-Aug-19 07:38 35.795064 -115.626551 291 2602ft 0kts
31-Aug-19 07:39 35.795086 -115.626600 306 2602ft 1kts
31-Aug-19 07:40 35.795236 -115.626675 1 2602ft 4kts
31-Aug-19 07:41 35.795728 -115.626826 21 2602ft 8kts
31-Aug-19 07:42 35.812886 -115.599453 105 3721ft 131kts
31-Aug-19 07:43 35.782285 -115.575462 143 5438ft 135kts
31-Aug-19 07:44 35.759613 -115.540074 116 7263ft 133kts
31-Aug-19 07:45 35.733338 -115.519199 176 8998ft 127kts
31-Aug-19 07:46 35.692421 -115.511483 171 9506ft 172kts
31-Aug-19 07:47 35.646896 -115.488671 145 9548ft 187kts
31-Aug-19 07:48 35.604050 -115.450117 145 9546ft 192kts
31-Aug-19 07:49 35.560082 -115.409839 143 9546ft 198kts
31-Aug-19 07:50 35.516005 -115.368502 144 9546ft 199kts
31-Aug-19 07:51 35.471051 -115.327870 146 9528ft 200kts
31-Aug-19 07:52 35.425514 -115.288164 147 9510ft 201kts
31-Aug-19 07:53 35.381210 -115.245398 140 9493ft 202kts
31-Aug-19 07:54 35.339602 -115.198986 139 9481ft 202kts
31-Aug-19 07:55 35.297527 -115.153256 142 9472ft 202kts
31-Aug-19 07:56 35.253859 -115.109745 142 9461ft 202kts
31-Aug-19 07:57 35.210198 -115.066288 142 9452ft 202kts
31-Aug-19 07:58 35.166236 -115.022881 142 9441ft 202kts
31-Aug-19 07:59 35.122318 -114.979478 142 9431ft 202kts
31-Aug-19 08:00 35.078643 -114.936291 142 9426ft 202kts
31-Aug-19 08:01 35.034441 -114.893361 144 9399ft 203kts
31-Aug-19 08:02 34.989113 -114.852034 144 9398ft 202kts
31-Aug-19 08:03 34.949275 -114.803727 134 9398ft 203kts
31-Aug-19 08:04 34.910386 -114.753060 134 9194ft 201kts
31-Aug-19 08:05 34.872778 -114.704104 134 8588ft 195kts
31-Aug-19 08:06 34.835402 -114.656146 134 7987ft 194kts
31-Aug-19 08:07 34.798294 -114.608863 134 7387ft 192kts
31-Aug-19 08:08 34.761150 -114.562039 134 6786ft 191kts
31-Aug-19 08:09 34.723961 -114.515819 135 6183ft 190kts
31-Aug-19 08:10 34.681997 -114.477106 147 5579ft 185kts
31-Aug-19 08:11 34.638225 -114.449876 160 4484ft 174kts
31-Aug-19 08:12 34.600054 -114.434897 168 2903ft 119kts
31-Aug-19 08:13 34.569194 -114.431930 177 1764ft 110kts
31-Aug-19 08:14 34.544322 -114.432206 170 855ft 73kts
31-Aug-19 08:15 34.529172 -114.431954 167 633ft 15kts
31-Aug-19 08:16 34.528761 -114.430156 357 632ft 0kts
31-Aug-19 08:17 34.528761 -114.430156 357 632ft 0kts

Navigation Log

Ident Type
Flight plan parsing failed, navigation log unavailable